Repto Universidad, Puerto Rico
Current Conditions -  °F | °C
As of 7:50 PM on Sunday 23 Nov 2014 (Local Time) from TJBQ Reporting Station
Clear Clear  
Wind Chill: 79°   Ceiling: Unl
Heat Index: 82°   Visibility: 10mi
Dew Point: 72°   Wind: 9mph
Humidity: 78%   Direction: 110°ESE
Pressure: 30.02"   Gusts: NA
Location:  18.0846°N, 67.0463°W
Report Text: TJBQ 232350Z 11008KT 10SM SKC 26/22 A3002 RMK RWY 08 ATIS R
Loading
Personal Weather Stations






























Interactive Weather Map New forecast layout! Learn more

10-Day Weather Forecast

Advertisements
Track Severe Weather on mobile